sensor_id;sensor_type;location;lat;lon;timestamp;temperature;humidity
25871;DHT22;13689;48.590;7.752;2024-02-21T00:00:36;10.30;76.30
25871;DHT22;13689;48.590;7.752;2024-02-21T00:03:04;10.30;76.30
25871;DHT22;13689;48.590;7.752;2024-02-21T00:05:30;10.30;76.40
25871;DHT22;13689;48.590;7.752;2024-02-21T00:07:57;10.30;76.30
25871;DHT22;13689;48.590;7.752;2024-02-21T00:10:23;10.20;76.20
25871;DHT22;13689;48.590;7.752;2024-02-21T00:12:48;10.20;76.50
25871;DHT22;13689;48.590;7.752;2024-02-21T00:15:14;10.20;76.30
25871;DHT22;13689;48.590;7.752;2024-02-21T00:17:40;10.20;76.40
25871;DHT22;13689;48.590;7.752;2024-02-21T00:20:07;10.20;76.60
25871;DHT22;13689;48.590;7.752;2024-02-21T00:22:32;10.20;76.40
25871;DHT22;13689;48.590;7.752;2024-02-21T00:24:59;10.20;76.60
25871;DHT22;13689;48.590;7.752;2024-02-21T00:27:24;10.20;76.80
25871;DHT22;13689;48.590;7.752;2024-02-21T00:29:50;10.20;76.70
25871;DHT22;13689;48.590;7.752;2024-02-21T00:32:16;10.20;77.30
25871;DHT22;13689;48.590;7.752;2024-02-21T00:34:41;10.20;76.50
25871;DHT22;13689;48.590;7.752;2024-02-21T00:37:07;10.10;76.60
25871;DHT22;13689;48.590;7.752;2024-02-21T00:39:32;10.20;76.80
25871;DHT22;13689;48.590;7.752;2024-02-21T00:41:58;10.20;76.70
25871;DHT22;13689;48.590;7.752;2024-02-21T00:44:23;10.20;76.80
25871;DHT22;13689;48.590;7.752;2024-02-21T00:46:49;10.10;76.70
25871;DHT22;13689;48.590;7.752;2024-02-21T00:49:15;10.10;76.80
25871;DHT22;13689;48.590;7.752;2024-02-21T00:51:40;10.10;76.90
25871;DHT22;13689;48.590;7.752;2024-02-21T00:54:06;10.10;77.00
25871;DHT22;13689;48.590;7.752;2024-02-21T00:56:31;10.10;76.80
25871;DHT22;13689;48.590;7.752;2024-02-21T00:58:57;10.00;76.90
25871;DHT22;13689;48.590;7.752;2024-02-21T01:01:24;10.00;77.00
25871;DHT22;13689;48.590;7.752;2024-02-21T01:03:50;10.00;77.10
25871;DHT22;13689;48.590;7.752;2024-02-21T01:06:20;10.00;77.20
25871;DHT22;13689;48.590;7.752;2024-02-21T01:08:48;9.90;77.10
25871;DHT22;13689;48.590;7.752;2024-02-21T01:11:14;9.90;77.10
25871;DHT22;13689;48.590;7.752;2024-02-21T01:13:40;9.90;77.30
25871;DHT22;13689;48.590;7.752;2024-02-21T01:16:06;9.90;77.30
25871;DHT22;13689;48.590;7.752;2024-02-21T01:18:36;9.90;77.30
25871;DHT22;13689;48.590;7.752;2024-02-21T01:21:02;9.90;77.40
25871;DHT22;13689;48.590;7.752;2024-02-21T01:23:28;9.90;77.30
25871;DHT22;13689;48.590;7.752;2024-02-21T01:25:54;9.90;77.30
25871;DHT22;13689;48.590;7.752;2024-02-21T01:28:20;9.80;77.40
25871;DHT22;13689;48.590;7.752;2024-02-21T01:30:46;9.80;77.50
25871;DHT22;13689;48.590;7.752;2024-02-21T01:33:11;9.90;77.40
25871;DHT22;13689;48.590;7.752;2024-02-21T01:35:37;9.80;77.60
25871;DHT22;13689;48.590;7.752;2024-02-21T01:38:03;9.80;77.70
25871;DHT22;13689;48.590;7.752;2024-02-21T01:40:29;9.80;77.50
25871;DHT22;13689;48.590;7.752;2024-02-21T01:42:55;9.80;77.80
25871;DHT22;13689;48.590;7.752;2024-02-21T01:45:21;9.90;77.60
25871;DHT22;13689;48.590;7.752;2024-02-21T01:47:47;9.80;77.70
25871;DHT22;13689;48.590;7.752;2024-02-21T01:50:15;9.80;77.50
25871;DHT22;13689;48.590;7.752;2024-02-21T01:52:41;9.80;77.80
25871;DHT22;13689;48.590;7.752;2024-02-21T01:55:09;9.80;77.90
25871;DHT22;13689;48.590;7.752;2024-02-21T01:57:36;9.80;77.80
25871;DHT22;13689;48.590;7.752;2024-02-21T02:00:02;9.80;77.90
25871;DHT22;13689;48.590;7.752;2024-02-21T02:02:28;9.70;78.10
25871;DHT22;13689;48.590;7.752;2024-02-21T02:04:54;9.80;78.10
25871;DHT22;13689;48.590;7.752;2024-02-21T02:07:20;9.80;78.00
25871;DHT22;13689;48.590;7.752;2024-02-21T02:09:46;9.80;78.10
25871;DHT22;13689;48.590;7.752;2024-02-21T02:12:11;9.80;78.10
25871;DHT22;13689;48.590;7.752;2024-02-21T02:14:37;9.80;78.00
25871;DHT22;13689;48.590;7.752;2024-02-21T02:17:02;9.80;78.00
25871;DHT22;13689;48.590;7.752;2024-02-21T02:19:28;9.80;78.10
25871;DHT22;13689;48.590;7.752;2024-02-21T02:21:58;9.70;78.10
25871;DHT22;13689;48.590;7.752;2024-02-21T02:24:25;9.70;78.20
25871;DHT22;13689;48.590;7.752;2024-02-21T02:26:51;9.70;78.30
25871;DHT22;13689;48.590;7.752;2024-02-21T02:29:17;9.70;78.20
25871;DHT22;13689;48.590;7.752;2024-02-21T02:31:42;9.70;78.30
25871;DHT22;13689;48.590;7.752;2024-02-21T02:34:08;9.70;78.30
25871;DHT22;13689;48.590;7.752;2024-02-21T02:36:35;9.60;78.40
25871;DHT22;13689;48.590;7.752;2024-02-21T02:39:00;9.70;78.50
25871;DHT22;13689;48.590;7.752;2024-02-21T02:41:26;9.60;78.50
25871;DHT22;13689;48.590;7.752;2024-02-21T02:43:52;9.60;78.30
25871;DHT22;13689;48.590;7.752;2024-02-21T02:46:17;9.60;78.50
25871;DHT22;13689;48.590;7.752;2024-02-21T02:48:43;9.60;78.50
25871;DHT22;13689;48.590;7.752;2024-02-21T02:51:08;9.50;78.50
25871;DHT22;13689;48.590;7.752;2024-02-21T02:53:34;9.50;78.60
25871;DHT22;13689;48.590;7.752;2024-02-21T02:55:59;9.50;78.60
25871;DHT22;13689;48.590;7.752;2024-02-21T02:58:25;9.50;78.60
25871;DHT22;13689;48.590;7.752;2024-02-21T03:00:50;9.40;78.70
25871;DHT22;13689;48.590;7.752;2024-02-21T03:03:16;9.40;78.90
25871;DHT22;13689;48.590;7.752;2024-02-21T03:05:42;9.40;78.70
25871;DHT22;13689;48.590;7.752;2024-02-21T03:08:07;9.40;78.90
25871;DHT22;13689;48.590;7.752;2024-02-21T03:10:33;9.30;78.90
25871;DHT22;13689;48.590;7.752;2024-02-21T03:12:59;9.30;79.00
25871;DHT22;13689;48.590;7.752;2024-02-21T03:15:25;9.30;79.00
25871;DHT22;13689;48.590;7.752;2024-02-21T03:17:50;9.30;79.30
25871;DHT22;13689;48.590;7.752;2024-02-21T03:20:16;9.30;79.30
25871;DHT22;13689;48.590;7.752;2024-02-21T03:22:42;9.30;79.30
25871;DHT22;13689;48.590;7.752;2024-02-21T03:25:08;9.20;79.20
25871;DHT22;13689;48.590;7.752;2024-02-21T03:27:34;9.20;79.30
25871;DHT22;13689;48.590;7.752;2024-02-21T03:30:01;9.20;79.40
25871;DHT22;13689;48.590;7.752;2024-02-21T03:32:27;9.20;79.40
25871;DHT22;13689;48.590;7.752;2024-02-21T03:34:53;9.10;79.40
25871;DHT22;13689;48.590;7.752;2024-02-21T03:37:20;9.10;79.50
25871;DHT22;13689;48.590;7.752;2024-02-21T03:39:45;9.10;79.60
25871;DHT22;13689;48.590;7.752;2024-02-21T03:42:11;9.10;79.70
25871;DHT22;13689;48.590;7.752;2024-02-21T03:44:37;9.10;79.70
25871;DHT22;13689;48.590;7.752;2024-02-21T03:47:02;9.10;79.80
25871;DHT22;13689;48.590;7.752;2024-02-21T03:49:28;9.10;79.80
25871;DHT22;13689;48.590;7.752;2024-02-21T03:51:54;9.10;79.90
25871;DHT22;13689;48.590;7.752;2024-02-21T03:54:19;9.10;80.00
25871;DHT22;13689;48.590;7.752;2024-02-21T03:56:45;9.10;80.00
25871;DHT22;13689;48.590;7.752;2024-02-21T03:59:13;9.00;80.00
25871;DHT22;13689;48.590;7.752;2024-02-21T04:01:38;9.00;80.00
25871;DHT22;13689;48.590;7.752;2024-02-21T04:04:04;9.00;80.10
25871;DHT22;13689;48.590;7.752;2024-02-21T04:06:30;8.90;80.10
25871;DHT22;13689;48.590;7.752;2024-02-21T04:08:56;8.90;80.30
25871;DHT22;13689;48.590;7.752;2024-02-21T04:11:22;8.90;80.40
25871;DHT22;13689;48.590;7.752;2024-02-21T04:13:47;8.90;80.50
25871;DHT22;13689;48.590;7.752;2024-02-21T04:16:15;8.90;80.60
25871;DHT22;13689;48.590;7.752;2024-02-21T04:18:41;8.90;80.60
25871;DHT22;13689;48.590;7.752;2024-02-21T04:21:08;8.90;80.60
25871;DHT22;13689;48.590;7.752;2024-02-21T04:23:33;8.90;80.70
25871;DHT22;13689;48.590;7.752;2024-02-21T04:25:59;8.90;80.80
25871;DHT22;13689;48.590;7.752;2024-02-21T04:28:24;8.80;80.70
25871;DHT22;13689;48.590;7.752;2024-02-21T04:30:50;8.80;80.80
25871;DHT22;13689;48.590;7.752;2024-02-21T04:33:16;8.80;80.80
25871;DHT22;13689;48.590;7.752;2024-02-21T04:35:41;8.80;81.00
25871;DHT22;13689;48.590;7.752;2024-02-21T04:38:07;8.70;81.00
25871;DHT22;13689;48.590;7.752;2024-02-21T04:40:33;8.70;81.00
25871;DHT22;13689;48.590;7.752;2024-02-21T04:42:59;8.70;81.10
25871;DHT22;13689;48.590;7.752;2024-02-21T04:45:24;8.70;81.30
25871;DHT22;13689;48.590;7.752;2024-02-21T04:47:50;8.70;81.30
25871;DHT22;13689;48.590;7.752;2024-02-21T04:50:16;8.60;81.20
25871;DHT22;13689;48.590;7.752;2024-02-21T04:52:43;8.60;81.50
25871;DHT22;13689;48.590;7.752;2024-02-21T04:55:08;8.60;81.50
25871;DHT22;13689;48.590;7.752;2024-02-21T04:57:34;8.60;81.50
25871;DHT22;13689;48.590;7.752;2024-02-21T05:00:00;8.60;81.50
25871;DHT22;13689;48.590;7.752;2024-02-21T05:02:25;8.60;81.60
25871;DHT22;13689;48.590;7.752;2024-02-21T05:04:52;8.60;81.70
25871;DHT22;13689;48.590;7.752;2024-02-21T05:07:18;8.60;81.80
25871;DHT22;13689;48.590;7.752;2024-02-21T05:09:45;8.50;81.70
25871;DHT22;13689;48.590;7.752;2024-02-21T05:12:11;8.50;81.90
25871;DHT22;13689;48.590;7.752;2024-02-21T05:14:37;8.50;82.00
25871;DHT22;13689;48.590;7.752;2024-02-21T05:17:04;8.50;82.00
25871;DHT22;13689;48.590;7.752;2024-02-21T05:19:29;8.50;82.00
25871;DHT22;13689;48.590;7.752;2024-02-21T05:21:55;8.50;82.00
25871;DHT22;13689;48.590;7.752;2024-02-21T05:24:21;8.40;82.10
25871;DHT22;13689;48.590;7.752;2024-02-21T05:26:46;8.40;82.10
25871;DHT22;13689;48.590;7.752;2024-02-21T05:29:12;8.40;82.30
25871;DHT22;13689;48.590;7.752;2024-02-21T05:34:19;8.30;82.30
25871;DHT22;13689;48.590;7.752;2024-02-21T05:36:45;8.30;82.50
25871;DHT22;13689;48.590;7.752;2024-02-21T05:39:11;8.30;82.50
25871;DHT22;13689;48.590;7.752;2024-02-21T05:41:37;8.30;82.60
25871;DHT22;13689;48.590;7.752;2024-02-21T05:44:03;8.30;82.60
25871;DHT22;13689;48.590;7.752;2024-02-21T05:46:28;8.30;82.70
25871;DHT22;13689;48.590;7.752;2024-02-21T05:48:54;8.30;82.60
25871;DHT22;13689;48.590;7.752;2024-02-21T05:51:20;8.30;82.70
25871;DHT22;13689;48.590;7.752;2024-02-21T05:53:46;8.40;82.90
25871;DHT22;13689;48.590;7.752;2024-02-21T05:56:12;8.30;82.80
25871;DHT22;13689;48.590;7.752;2024-02-21T05:58:38;8.30;82.80
25871;DHT22;13689;48.590;7.752;2024-02-21T06:01:04;8.30;82.90
25871;DHT22;13689;48.590;7.752;2024-02-21T06:03:30;8.30;82.90
25871;DHT22;13689;48.590;7.752;2024-02-21T06:05:56;8.30;83.00
25871;DHT22;13689;48.590;7.752;2024-02-21T06:08:22;8.30;83.10
25871;DHT22;13689;48.590;7.752;2024-02-21T06:10:47;8.30;83.10
25871;DHT22;13689;48.590;7.752;2024-02-21T06:13:23;8.30;83.20
25871;DHT22;13689;48.590;7.752;2024-02-21T06:15:49;8.40;83.30
25871;DHT22;13689;48.590;7.752;2024-02-21T06:18:18;8.40;83.20
25871;DHT22;13689;48.590;7.752;2024-02-21T06:20:45;8.30;83.10
25871;DHT22;13689;48.590;7.752;2024-02-21T06:23:11;8.30;83.20
25871;DHT22;13689;48.590;7.752;2024-02-21T06:25:38;8.30;83.20
25871;DHT22;13689;48.590;7.752;2024-02-21T06:28:04;8.30;83.40
25871;DHT22;13689;48.590;7.752;2024-02-21T06:30:29;8.30;83.40
25871;DHT22;13689;48.590;7.752;2024-02-21T06:32:55;8.30;83.50
25871;DHT22;13689;48.590;7.752;2024-02-21T06:35:21;8.30;83.60
25871;DHT22;13689;48.590;7.752;2024-02-21T06:37:47;8.30;83.50
25871;DHT22;13689;48.590;7.752;2024-02-21T06:40:25;8.30;83.60
25871;DHT22;13689;48.590;7.752;2024-02-21T06:42:51;8.30;83.60
25871;DHT22;13689;48.590;7.752;2024-02-21T06:45:17;8.30;83.50
25871;DHT22;13689;48.590;7.752;2024-02-21T06:47:42;8.30;83.50
25871;DHT22;13689;48.590;7.752;2024-02-21T06:50:09;8.30;83.60
25871;DHT22;13689;48.590;7.752;2024-02-21T06:52:35;8.40;83.70
25871;DHT22;13689;48.590;7.752;2024-02-21T06:55:00;8.40;83.70
25871;DHT22;13689;48.590;7.752;2024-02-21T06:57:28;8.40;83.60
25871;DHT22;13689;48.590;7.752;2024-02-21T06:59:54;8.40;83.60
25871;DHT22;13689;48.590;7.752;2024-02-21T07:02:19;8.40;83.60
25871;DHT22;13689;48.590;7.752;2024-02-21T07:04:45;8.40;83.70
25871;DHT22;13689;48.590;7.752;2024-02-21T07:07:11;8.50;83.70
25871;DHT22;13689;48.590;7.752;2024-02-21T07:09:36;8.50;83.60
25871;DHT22;13689;48.590;7.752;2024-02-21T07:12:02;8.50;83.60
25871;DHT22;13689;48.590;7.752;2024-02-21T07:14:29;8.60;83.60
25871;DHT22;13689;48.590;7.752;2024-02-21T07:16:55;8.60;83.60
25871;DHT22;13689;48.590;7.752;2024-02-21T07:19:22;8.60;83.50
25871;DHT22;13689;48.590;7.752;2024-02-21T07:21:47;8.70;84.40
25871;DHT22;13689;48.590;7.752;2024-02-21T07:24:13;8.70;83.50
25871;DHT22;13689;48.590;7.752;2024-02-21T07:26:42;8.70;83.40
25871;DHT22;13689;48.590;7.752;2024-02-21T07:29:11;8.70;83.50
25871;DHT22;13689;48.590;7.752;2024-02-21T07:31:43;8.70;83.40
25871;DHT22;13689;48.590;7.752;2024-02-21T07:34:10;8.80;83.50
25871;DHT22;13689;48.590;7.752;2024-02-21T07:36:35;8.70;83.40
25871;DHT22;13689;48.590;7.752;2024-02-21T07:39:03;8.80;83.60
25871;DHT22;13689;48.590;7.752;2024-02-21T07:41:28;8.80;83.10
25871;DHT22;13689;48.590;7.752;2024-02-21T07:43:55;8.80;83.50
25871;DHT22;13689;48.590;7.752;2024-02-21T07:46:21;8.80;83.30
25871;DHT22;13689;48.590;7.752;2024-02-21T07:48:47;8.90;83.30
25871;DHT22;13689;48.590;7.752;2024-02-21T07:51:12;8.90;83.30
25871;DHT22;13689;48.590;7.752;2024-02-21T07:53:41;9.00;83.10
25871;DHT22;13689;48.590;7.752;2024-02-21T07:56:14;9.00;83.20
25871;DHT22;13689;48.590;7.752;2024-02-21T07:58:40;9.00;83.10
25871;DHT22;13689;48.590;7.752;2024-02-21T08:01:06;9.00;82.60
25871;DHT22;13689;48.590;7.752;2024-02-21T08:03:31;9.00;82.90
25871;DHT22;13689;48.590;7.752;2024-02-21T08:05:57;9.00;83.10
25871;DHT22;13689;48.590;7.752;2024-02-21T08:08:23;9.10;82.60
25871;DHT22;13689;48.590;7.752;2024-02-21T08:10:51;9.10;83.00
25871;DHT22;13689;48.590;7.752;2024-02-21T08:13:17;9.10;82.70
25871;DHT22;13689;48.590;7.752;2024-02-21T08:15:43;9.10;82.50
25871;DHT22;13689;48.590;7.752;2024-02-21T08:18:08;9.20;82.90
25871;DHT22;13689;48.590;7.752;2024-02-21T08:20:34;9.30;82.70
25871;DHT22;13689;48.590;7.752;2024-02-21T08:23:00;9.40;82.30
25871;DHT22;13689;48.590;7.752;2024-02-21T08:25:26;9.50;82.40
25871;DHT22;13689;48.590;7.752;2024-02-21T08:27:53;9.60;82.50
25871;DHT22;13689;48.590;7.752;2024-02-21T08:30:19;9.70;82.10
25871;DHT22;13689;48.590;7.752;2024-02-21T08:32:45;9.70;81.70
25871;DHT22;13689;48.590;7.752;2024-02-21T08:35:11;9.80;81.70
25871;DHT22;13689;48.590;7.752;2024-02-21T08:37:37;9.90;81.70
25871;DHT22;13689;48.590;7.752;2024-02-21T08:40:03;10.00;81.50
25871;DHT22;13689;48.590;7.752;2024-02-21T08:42:36;10.00;81.00
25871;DHT22;13689;48.590;7.752;2024-02-21T08:45:04;10.10;81.00
25871;DHT22;13689;48.590;7.752;2024-02-21T08:47:30;10.00;80.60
25871;DHT22;13689;48.590;7.752;2024-02-21T08:49:56;10.10;80.60
25871;DHT22;13689;48.590;7.752;2024-02-21T08:52:22;10.10;80.10
25871;DHT22;13689;48.590;7.752;2024-02-21T08:54:47;10.10;80.40
25871;DHT22;13689;48.590;7.752;2024-02-21T08:57:13;10.20;80.30
25871;DHT22;13689;48.590;7.752;2024-02-21T08:59:40;10.30;80.00
25871;DHT22;13689;48.590;7.752;2024-02-21T09:02:05;10.40;79.50
25871;DHT22;13689;48.590;7.752;2024-02-21T09:04:32;10.50;79.60
25871;DHT22;13689;48.590;7.752;2024-02-21T09:06:58;10.60;79.50
25871;DHT22;13689;48.590;7.752;2024-02-21T09:09:24;10.80;79.20
25871;DHT22;13689;48.590;7.752;2024-02-21T09:11:49;10.90;78.80
25871;DHT22;13689;48.590;7.752;2024-02-21T09:14:15;11.00;78.00
25871;DHT22;13689;48.590;7.752;2024-02-21T09:16:41;11.10;78.00
25871;DHT22;13689;48.590;7.752;2024-02-21T09:19:06;11.30;77.60
25871;DHT22;13689;48.590;7.752;2024-02-21T09:21:36;11.60;77.30
25871;DHT22;13689;48.590;7.752;2024-02-21T09:24:01;11.80;76.90
25871;DHT22;13689;48.590;7.752;2024-02-21T09:26:28;12.10;76.40
25871;DHT22;13689;48.590;7.752;2024-02-21T09:28:53;12.40;75.90
25871;DHT22;13689;48.590;7.752;2024-02-21T09:31:19;12.50;75.30
25871;DHT22;13689;48.590;7.752;2024-02-21T09:33:45;12.40;74.90
25871;DHT22;13689;48.590;7.752;2024-02-21T09:36:10;12.40;74.90
25871;DHT22;13689;48.590;7.752;2024-02-21T09:38:36;12.30;74.80
25871;DHT22;13689;48.590;7.752;2024-02-21T09:43:40;12.10;74.30
25871;DHT22;13689;48.590;7.752;2024-02-21T09:46:08;12.20;74.40
25871;DHT22;13689;48.590;7.752;2024-02-21T09:51:17;12.30;73.50
25871;DHT22;13689;48.590;7.752;2024-02-21T09:53:44;12.40;73.20
25871;DHT22;13689;48.590;7.752;2024-02-21T09:56:11;12.50;73.00
25871;DHT22;13689;48.590;7.752;2024-02-21T09:58:39;12.50;72.30
25871;DHT22;13689;48.590;7.752;2024-02-21T10:01:06;12.60;72.10
25871;DHT22;13689;48.590;7.752;2024-02-21T10:03:32;12.70;71.60
25871;DHT22;13689;48.590;7.752;2024-02-21T10:05:59;12.70;71.20
25871;DHT22;13689;48.590;7.752;2024-02-21T10:08:26;12.80;71.30
25871;DHT22;13689;48.590;7.752;2024-02-21T10:10:52;12.90;71.10
25871;DHT22;13689;48.590;7.752;2024-02-21T10:13:31;12.90;70.40
25871;DHT22;13689;48.590;7.752;2024-02-21T10:16:07;13.00;70.20
25871;DHT22;13689;48.590;7.752;2024-02-21T10:18:34;13.00;69.80
25871;DHT22;13689;48.590;7.752;2024-02-21T10:21:01;13.00;70.00
25871;DHT22;13689;48.590;7.752;2024-02-21T10:23:27;13.20;69.90
25871;DHT22;13689;48.590;7.752;2024-02-21T10:25:52;13.30;69.60
25871;DHT22;13689;48.590;7.752;2024-02-21T10:28:18;13.30;69.60
25871;DHT22;13689;48.590;7.752;2024-02-21T10:30:52;13.50;69.40
25871;DHT22;13689;48.590;7.752;2024-02-21T10:33:18;13.60;68.90
25871;DHT22;13689;48.590;7.752;2024-02-21T10:36:10;13.60;68.50
25871;DHT22;13689;48.590;7.752;2024-02-21T10:38:39;13.60;68.60
25871;DHT22;13689;48.590;7.752;2024-02-21T10:41:10;13.70;68.20
25871;DHT22;13689;48.590;7.752;2024-02-21T10:43:40;13.80;68.30
25871;DHT22;13689;48.590;7.752;2024-02-21T10:46:08;13.70;67.80
25871;DHT22;13689;48.590;7.752;2024-02-21T10:48:42;13.70;67.80
25871;DHT22;13689;48.590;7.752;2024-02-21T10:51:18;13.60;67.50
25871;DHT22;13689;48.590;7.752;2024-02-21T10:56:29;13.50;67.30
25871;DHT22;13689;48.590;7.752;2024-02-21T10:58:57;13.40;67.20
25871;DHT22;13689;48.590;7.752;2024-02-21T11:01:23;13.30;67.10
25871;DHT22;13689;48.590;7.752;2024-02-21T11:03:53;13.20;67.00
25871;DHT22;13689;48.590;7.752;2024-02-21T11:06:20;13.10;66.70
25871;DHT22;13689;48.590;7.752;2024-02-21T11:08:47;13.00;66.90
25871;DHT22;13689;48.590;7.752;2024-02-21T11:11:13;13.00;67.20
25871;DHT22;13689;48.590;7.752;2024-02-21T11:13:47;13.10;67.30
25871;DHT22;13689;48.590;7.752;2024-02-21T11:16:22;13.10;66.90
25871;DHT22;13689;48.590;7.752;2024-02-21T11:18:48;13.10;66.80
25871;DHT22;13689;48.590;7.752;2024-02-21T11:21:13;13.00;66.70
25871;DHT22;13689;48.590;7.752;2024-02-21T11:23:39;13.00;66.30
25871;DHT22;13689;48.590;7.752;2024-02-21T11:26:19;13.00;66.40
25871;DHT22;13689;48.590;7.752;2024-02-21T11:28:55;12.90;66.40
25871;DHT22;13689;48.590;7.752;2024-02-21T11:31:21;12.90;66.60
25871;DHT22;13689;48.590;7.752;2024-02-21T11:33:47;13.00;66.60
25871;DHT22;13689;48.590;7.752;2024-02-21T11:36:25;13.00;67.00
25871;DHT22;13689;48.590;7.752;2024-02-21T11:38:51;13.00;66.40
25871;DHT22;13689;48.590;7.752;2024-02-21T11:41:18;13.10;66.50
25871;DHT22;13689;48.590;7.752;2024-02-21T11:43:43;13.10;66.40
25871;DHT22;13689;48.590;7.752;2024-02-21T11:46:09;13.10;66.10
25871;DHT22;13689;48.590;7.752;2024-02-21T11:48:34;13.10;66.00
25871;DHT22;13689;48.590;7.752;2024-02-21T11:51:00;13.10;66.10
25871;DHT22;13689;48.590;7.752;2024-02-21T11:53:26;13.00;66.00
25871;DHT22;13689;48.590;7.752;2024-02-21T11:55:56;13.00;66.30
25871;DHT22;13689;48.590;7.752;2024-02-21T11:58:22;13.00;66.00
25871;DHT22;13689;48.590;7.752;2024-02-21T12:00:48;13.00;66.10
25871;DHT22;13689;48.590;7.752;2024-02-21T12:03:14;13.00;66.00
25871;DHT22;13689;48.590;7.752;2024-02-21T12:05:41;12.90;65.80
25871;DHT22;13689;48.590;7.752;2024-02-21T12:08:06;12.90;65.90
25871;DHT22;13689;48.590;7.752;2024-02-21T12:10:35;13.00;65.80
25871;DHT22;13689;48.590;7.752;2024-02-21T12:13:08;12.90;65.70
25871;DHT22;13689;48.590;7.752;2024-02-21T12:15:34;13.00;65.90
25871;DHT22;13689;48.590;7.752;2024-02-21T12:18:00;13.00;65.70
25871;DHT22;13689;48.590;7.752;2024-02-21T12:20:26;13.00;65.30
25871;DHT22;13689;48.590;7.752;2024-02-21T12:22:52;12.90;65.70
25871;DHT22;13689;48.590;7.752;2024-02-21T12:25:20;12.90;65.80
25871;DHT22;13689;48.590;7.752;2024-02-21T12:27:51;13.00;65.60
25871;DHT22;13689;48.590;7.752;2024-02-21T12:30:17;13.00;65.80
25871;DHT22;13689;48.590;7.752;2024-02-21T12:32:42;13.00;65.80
25871;DHT22;13689;48.590;7.752;2024-02-21T12:35:08;13.00;65.80
25871;DHT22;13689;48.590;7.752;2024-02-21T12:37:34;13.00;65.90
25871;DHT22;13689;48.590;7.752;2024-02-21T12:40:00;13.10;65.90
25871;DHT22;13689;48.590;7.752;2024-02-21T12:42:26;13.10;65.90
25871;DHT22;13689;48.590;7.752;2024-02-21T12:44:54;13.20;65.80
25871;DHT22;13689;48.590;7.752;2024-02-21T12:47:20;13.20;65.80
25871;DHT22;13689;48.590;7.752;2024-02-21T12:49:49;13.20;65.60
25871;DHT22;13689;48.590;7.752;2024-02-21T12:52:15;13.20;65.70
25871;DHT22;13689;48.590;7.752;2024-02-21T12:54:40;13.20;65.90
25871;DHT22;13689;48.590;7.752;2024-02-21T12:57:06;13.20;65.90
25871;DHT22;13689;48.590;7.752;2024-02-21T12:59:31;13.20;65.70
25871;DHT22;13689;48.590;7.752;2024-02-21T13:01:57;13.20;65.60
25871;DHT22;13689;48.590;7.752;2024-02-21T13:04:23;13.20;65.90
25871;DHT22;13689;48.590;7.752;2024-02-21T13:06:49;13.20;66.00
25871;DHT22;13689;48.590;7.752;2024-02-21T13:09:14;13.20;66.00
25871;DHT22;13689;48.590;7.752;2024-02-21T13:11:41;13.20;65.90
25871;DHT22;13689;48.590;7.752;2024-02-21T13:14:07;13.20;66.20
25871;DHT22;13689;48.590;7.752;2024-02-21T13:16:33;13.30;66.10
25871;DHT22;13689;48.590;7.752;2024-02-21T13:19:05;13.30;66.10
25871;DHT22;13689;48.590;7.752;2024-02-21T13:21:30;13.30;66.10
25871;DHT22;13689;48.590;7.752;2024-02-21T13:23:56;13.30;66.10
25871;DHT22;13689;48.590;7.752;2024-02-21T13:26:22;13.30;66.10
25871;DHT22;13689;48.590;7.752;2024-02-21T13:28:48;13.30;66.20
25871;DHT22;13689;48.590;7.752;2024-02-21T13:31:14;13.30;66.00
25871;DHT22;13689;48.590;7.752;2024-02-21T13:33:42;13.30;66.00
25871;DHT22;13689;48.590;7.752;2024-02-21T13:36:07;13.30;66.20
25871;DHT22;13689;48.590;7.752;2024-02-21T13:38:33;13.40;66.30
25871;DHT22;13689;48.590;7.752;2024-02-21T13:40:59;13.40;66.20
25871;DHT22;13689;48.590;7.752;2024-02-21T13:43:25;13.50;65.90
25871;DHT22;13689;48.590;7.752;2024-02-21T13:45:59;13.50;66.00
25871;DHT22;13689;48.590;7.752;2024-02-21T13:48:24;13.50;66.00
25871;DHT22;13689;48.590;7.752;2024-02-21T13:50:50;13.50;65.80
25871;DHT22;13689;48.590;7.752;2024-02-21T13:53:16;13.40;65.40
25871;DHT22;13689;48.590;7.752;2024-02-21T13:55:44;13.40;65.60
25871;DHT22;13689;48.590;7.752;2024-02-21T13:58:10;13.30;65.40
25871;DHT22;13689;48.590;7.752;2024-02-21T14:00:35;13.30;65.00
25871;DHT22;13689;48.590;7.752;2024-02-21T14:03:03;13.20;64.90
25871;DHT22;13689;48.590;7.752;2024-02-21T14:05:28;13.20;64.60
25871;DHT22;13689;48.590;7.752;2024-02-21T14:07:54;13.20;64.50
25871;DHT22;13689;48.590;7.752;2024-02-21T14:10:20;13.20;64.30
25871;DHT22;13689;48.590;7.752;2024-02-21T14:12:46;13.20;64.10
25871;DHT22;13689;48.590;7.752;2024-02-21T14:15:13;13.20;64.00
25871;DHT22;13689;48.590;7.752;2024-02-21T14:17:39;13.20;63.60
25871;DHT22;13689;48.590;7.752;2024-02-21T14:20:06;13.30;63.70
25871;DHT22;13689;48.590;7.752;2024-02-21T14:22:31;13.30;63.50
25871;DHT22;13689;48.590;7.752;2024-02-21T14:24:57;13.30;63.40
25871;DHT22;13689;48.590;7.752;2024-02-21T14:27:23;13.30;63.40
25871;DHT22;13689;48.590;7.752;2024-02-21T14:29:48;13.30;63.20
25871;DHT22;13689;48.590;7.752;2024-02-21T14:32:14;13.30;63.10
25871;DHT22;13689;48.590;7.752;2024-02-21T14:34:39;13.30;63.00
25871;DHT22;13689;48.590;7.752;2024-02-21T14:37:06;13.30;63.10
25871;DHT22;13689;48.590;7.752;2024-02-21T14:39:32;13.40;63.10
25871;DHT22;13689;48.590;7.752;2024-02-21T14:42:00;13.40;63.00
25871;DHT22;13689;48.590;7.752;2024-02-21T14:44:25;13.30;62.80
25871;DHT22;13689;48.590;7.752;2024-02-21T14:46:52;13.30;62.80
25871;DHT22;13689;48.590;7.752;2024-02-21T14:49:18;13.20;62.90
25871;DHT22;13689;48.590;7.752;2024-02-21T14:51:44;13.20;63.00
25871;DHT22;13689;48.590;7.752;2024-02-21T14:54:10;13.20;62.90
25871;DHT22;13689;48.590;7.752;2024-02-21T14:56:36;13.20;62.90
25871;DHT22;13689;48.590;7.752;2024-02-21T14:59:02;13.20;63.00
25871;DHT22;13689;48.590;7.752;2024-02-21T15:01:28;13.10;62.90
25871;DHT22;13689;48.590;7.752;2024-02-21T15:03:54;13.10;63.00
25871;DHT22;13689;48.590;7.752;2024-02-21T15:06:19;13.10;63.10
25871;DHT22;13689;48.590;7.752;2024-02-21T15:08:45;13.10;63.10
25871;DHT22;13689;48.590;7.752;2024-02-21T15:11:11;13.00;63.10
25871;DHT22;13689;48.590;7.752;2024-02-21T15:13:37;13.00;63.10
25871;DHT22;13689;48.590;7.752;2024-02-21T15:16:03;13.00;63.20
25871;DHT22;13689;48.590;7.752;2024-02-21T15:18:30;13.00;63.20
25871;DHT22;13689;48.590;7.752;2024-02-21T15:20:58;13.00;63.30
25871;DHT22;13689;48.590;7.752;2024-02-21T15:23:24;13.00;63.30
25871;DHT22;13689;48.590;7.752;2024-02-21T15:25:50;12.90;63.30
25871;DHT22;13689;48.590;7.752;2024-02-21T15:28:16;12.90;63.20
25871;DHT22;13689;48.590;7.752;2024-02-21T15:30:42;12.90;63.20
25871;DHT22;13689;48.590;7.752;2024-02-21T15:33:07;12.90;63.10
25871;DHT22;13689;48.590;7.752;2024-02-21T15:35:33;12.90;63.20
25871;DHT22;13689;48.590;7.752;2024-02-21T15:38:02;12.80;63.00
25871;DHT22;13689;48.590;7.752;2024-02-21T15:40:28;12.80;63.20
25871;DHT22;13689;48.590;7.752;2024-02-21T15:42:54;12.80;63.20